createdAt,value
2019-03-30T00:01:02.972Z,20.08
2019-03-30T00:03:31.215Z,23.87
2019-03-30T00:05:59.549Z,17.82
2019-03-30T00:08:27.804Z,20.48
2019-03-30T00:10:56.138Z,22.95
2019-03-30T00:13:24.397Z,19.48
2019-03-30T00:15:52.656Z,22.02
2019-03-30T00:18:20.924Z,20.57
2019-03-30T00:20:49.191Z,18.55
2019-03-30T00:23:17.457Z,15.98
2019-03-30T00:25:45.717Z,15.10
2019-03-30T00:28:13.968Z,19.20
2019-03-30T00:30:42.254Z,19.23
2019-03-30T00:33:10.572Z,16.42
2019-03-30T00:35:38.849Z,17.73
2019-03-30T00:38:07.173Z,17.75
2019-03-30T00:40:38.501Z,17.60
2019-03-30T00:43:06.757Z,17.20
2019-03-30T00:45:35.060Z,17.25
2019-03-30T00:48:03.358Z,18.52
2019-03-30T00:50:31.605Z,17.32
2019-03-30T00:52:59.821Z,16.15
2019-03-30T00:55:28.068Z,19.15
2019-03-30T00:57:56.323Z,15.15
2019-03-30T01:00:24.609Z,15.37
2019-03-30T01:02:52.959Z,17.70
2019-03-30T01:05:21.197Z,14.78
2019-03-30T01:07:49.429Z,21.02
2019-03-30T01:10:17.712Z,16.60
2019-03-30T01:12:46.028Z,16.48
2019-03-30T01:15:14.485Z,15.03
2019-03-30T01:17:42.760Z,16.32
2019-03-30T01:20:11.022Z,18.35
2019-03-30T01:22:39.274Z,19.25
2019-03-30T01:25:08.544Z,18.70
2019-03-30T01:27:36.796Z,18.42
2019-03-30T01:30:05.405Z,17.50
2019-03-30T01:32:35.168Z,19.00
2019-03-30T01:35:03.610Z,19.95
2019-03-30T01:37:31.917Z,20.25
2019-03-30T01:40:00.273Z,18.67
2019-03-30T01:42:28.710Z,17.32
2019-03-30T01:44:56.923Z,20.02
2019-03-30T01:47:25.181Z,19.52
2019-03-30T01:49:53.396Z,19.40
2019-03-30T01:52:21.668Z,20.65
2019-03-30T01:54:49.921Z,22.58
2019-03-30T01:57:18.197Z,23.18
2019-03-30T01:59:46.486Z,23.73
2019-03-30T02:02:14.802Z,24.92
2019-03-30T02:05:30.992Z,24.18
2019-03-30T02:08:32.294Z,23.45
2019-03-30T02:11:30.589Z,22.90
2019-03-30T02:13:58.856Z,25.52
2019-03-30T02:16:32.934Z,23.05
2019-03-30T02:19:01.197Z,23.92
2019-03-30T02:21:32.441Z,25.82
2019-03-30T02:26:46.792Z,27.45
2019-03-30T02:29:30.488Z,24.65
2019-03-30T02:31:58.714Z,20.80
2019-03-30T02:34:29.780Z,22.90
2019-03-30T02:36:57.993Z,20.35
2019-03-30T02:39:26.250Z,22.90
2019-03-30T02:41:54.546Z,19.55
2019-03-30T02:44:22.799Z,21.65
2019-03-30T02:46:51.105Z,22.15
2019-03-30T02:49:31.732Z,20.10
2019-03-30T02:51:59.954Z,20.05
2019-03-30T02:54:34.273Z,20.17
2019-03-30T02:57:02.504Z,21.60
2019-03-30T02:59:30.762Z,24.12
2019-03-30T03:01:59.023Z,20.25
2019-03-30T03:04:27.273Z,21.82
2019-03-30T03:07:32.041Z,22.13
2019-03-30T03:10:00.516Z,20.77
2019-03-30T03:12:28.844Z,20.30
2019-03-30T03:14:57.089Z,19.07
2019-03-30T03:17:25.313Z,22.25
2019-03-30T03:19:53.547Z,21.45
2019-03-30T03:22:24.832Z,19.85
2019-03-30T03:24:53.209Z,18.35
2019-03-30T03:27:21.640Z,18.27
2019-03-30T03:29:49.971Z,17.05
2019-03-30T03:32:18.237Z,17.60
2019-03-30T03:34:46.514Z,19.92
2019-03-30T03:37:14.765Z,16.23
2019-03-30T03:39:43.012Z,15.70
2019-03-30T03:42:11.357Z,17.12
2019-03-30T03:44:39.580Z,18.12
2019-03-30T03:47:07.813Z,15.05
2019-03-30T03:49:36.061Z,15.90
2019-03-30T03:52:04.813Z,16.90
2019-03-30T03:54:33.250Z,19.10
2019-03-30T03:57:03.240Z,16.45
2019-03-30T03:59:32.693Z,16.87
2019-03-30T04:02:02.429Z,15.93
2019-03-30T04:04:30.809Z,16.12
2019-03-30T04:07:01.318Z,18.52
2019-03-30T04:09:30.738Z,17.00
2019-03-30T04:11:59.482Z,15.45
2019-03-30T04:14:27.778Z,16.97
2019-03-30T04:16:56.164Z,17.52
2019-03-30T04:19:24.426Z,21.80
2019-03-30T04:21:52.691Z,21.77
2019-03-30T04:24:23.804Z,17.95
2019-03-30T04:26:52.454Z,20.57
2019-03-30T04:29:20.681Z,18.45
2019-03-30T04:31:48.937Z,18.35
2019-03-30T04:34:17.192Z,18.92
2019-03-30T04:36:45.438Z,17.98
2019-03-30T04:39:13.649Z,19.55
2019-03-30T04:41:41.868Z,18.05
2019-03-30T04:44:10.089Z,17.62
2019-03-30T04:46:38.320Z,17.32
2019-03-30T04:49:06.580Z,18.37
2019-03-30T04:51:34.820Z,16.70
2019-03-30T04:54:03.065Z,18.30
2019-03-30T04:56:31.325Z,19.80
2019-03-30T04:58:59.581Z,17.65
2019-03-30T05:01:27.834Z,19.87
2019-03-30T05:03:56.098Z,18.87
2019-03-30T05:06:24.334Z,17.85
2019-03-30T05:08:52.569Z,16.80
2019-03-30T05:11:20.841Z,18.60
2019-03-30T05:13:49.086Z,17.82
2019-03-30T05:16:17.304Z,17.70
2019-03-30T05:18:45.548Z,17.52
2019-03-30T05:21:13.811Z,17.52
2019-03-30T05:23:42.052Z,19.55
2019-03-30T05:26:10.292Z,17.52
2019-03-30T05:28:38.540Z,19.48
2019-03-30T05:31:06.781Z,18.73
2019-03-30T05:33:35.096Z,21.20
2019-03-30T05:36:03.350Z,20.35
2019-03-30T05:38:31.609Z,19.17
2019-03-30T05:40:59.872Z,18.12
2019-03-30T05:43:28.115Z,19.15
2019-03-30T05:45:56.348Z,17.00
2019-03-30T05:48:24.545Z,19.57
2019-03-30T05:50:52.788Z,17.67
2019-03-30T05:53:21.051Z,19.12
2019-03-30T05:55:49.394Z,23.12
2019-03-30T05:58:17.613Z,20.43
2019-03-30T06:00:45.883Z,18.82
2019-03-30T06:03:14.153Z,17.15
2019-03-30T06:05:42.448Z,19.45
2019-03-30T06:08:10.705Z,18.10
2019-03-30T06:10:39.148Z,21.30
2019-03-30T06:13:07.565Z,25.55
2019-03-30T06:15:35.817Z,21.25
2019-03-30T06:18:04.046Z,19.35
2019-03-30T06:24:30.622Z,22.95
2019-03-30T06:27:31.716Z,19.87
2019-03-30T06:49:45.155Z,18.40
2019-03-30T06:52:13.468Z,20.08
2019-03-30T06:54:41.725Z,18.60
2019-03-30T06:57:09.985Z,19.00
2019-03-30T06:59:38.237Z,24.72
2019-03-30T07:02:07.838Z,18.50
2019-03-30T07:04:36.200Z,22.95
2019-03-30T07:07:04.538Z,20.52
2019-03-30T07:09:33.490Z,18.73
2019-03-30T07:12:03.571Z,19.12
2019-03-30T07:14:33.075Z,19.45
2019-03-30T07:17:03.288Z,21.55
2019-03-30T07:19:32.361Z,21.05
2019-03-30T07:22:00.629Z,18.75
2019-03-30T07:24:28.883Z,18.10
2019-03-30T07:26:57.162Z,16.97
2019-03-30T07:29:25.445Z,20.90
2019-03-30T07:31:53.693Z,21.40
2019-03-30T07:34:21.948Z,20.27
2019-03-30T07:36:50.209Z,20.85
2019-03-30T07:39:18.526Z,20.23
2019-03-30T07:41:46.846Z,19.57
2019-03-30T07:44:15.104Z,20.52
2019-03-30T07:46:43.425Z,21.05
2019-03-30T07:49:11.749Z,21.33
2019-03-30T07:51:40.101Z,18.32
2019-03-30T07:54:08.400Z,21.52
2019-03-30T07:56:36.665Z,22.62
2019-03-30T07:59:04.945Z,25.20
2019-03-30T08:01:33.230Z,26.73
2019-03-30T08:04:01.493Z,25.08
2019-03-30T08:06:29.739Z,26.95
2019-03-30T08:08:58.030Z,25.95
2019-03-30T08:11:26.405Z,23.38
2019-03-30T08:13:54.703Z,26.07
2019-03-30T08:16:22.937Z,28.57
2019-03-30T08:18:51.226Z,28.50
2019-03-30T08:21:19.525Z,24.20
2019-03-30T08:23:47.811Z,21.80
2019-03-30T08:26:16.097Z,53.98
2019-03-30T08:28:44.334Z,27.73
2019-03-30T08:31:12.694Z,25.15
2019-03-30T08:33:41.002Z,26.23
2019-03-30T08:36:09.282Z,29.12
2019-03-30T08:38:37.543Z,24.23
2019-03-30T08:41:06.930Z,27.42
2019-03-30T08:43:35.258Z,32.38
2019-03-30T08:46:03.649Z,28.02
2019-03-30T08:48:31.907Z,25.35
2019-03-30T08:51:00.241Z,26.50
2019-03-30T08:53:28.516Z,23.80
2019-03-30T08:55:56.815Z,23.77
2019-03-30T08:58:25.093Z,23.30
2019-03-30T09:00:53.400Z,26.57
2019-03-30T09:03:21.765Z,27.27
2019-03-30T09:05:50.068Z,29.42
2019-03-30T09:08:18.406Z,25.15
2019-03-30T09:10:46.682Z,40.75
2019-03-30T09:13:14.935Z,36.38
2019-03-30T09:15:43.257Z,27.25
2019-03-30T09:18:11.508Z,24.35
2019-03-30T09:20:39.791Z,23.15
2019-03-30T09:23:08.066Z,23.60
2019-03-30T09:25:36.362Z,28.50
2019-03-30T09:28:04.773Z,23.87
2019-03-30T09:30:33.210Z,26.05
2019-03-30T09:33:02.859Z,25.00
2019-03-30T09:35:34.227Z,23.15
2019-03-30T09:38:02.575Z,24.12
2019-03-30T09:40:30.907Z,21.85
2019-03-30T09:42:59.257Z,25.82
2019-03-30T09:45:27.510Z,24.02
2019-03-30T09:47:55.816Z,23.57
2019-03-30T09:50:24.094Z,24.25
2019-03-30T09:52:52.475Z,22.15
2019-03-30T09:55:20.726Z,23.87
2019-03-30T09:57:49.021Z,19.35
2019-03-30T10:00:17.291Z,20.88
2019-03-30T10:02:45.658Z,21.17
2019-03-30T10:05:13.959Z,22.33
2019-03-30T10:07:42.320Z,20.55
2019-03-30T10:10:10.575Z,24.37
2019-03-30T10:12:38.841Z,22.75
2019-03-30T10:15:07.184Z,22.10
2019-03-30T10:17:35.524Z,21.17
2019-03-30T10:20:05.088Z,19.40
2019-03-30T10:22:33.862Z,21.62
2019-03-30T10:25:02.158Z,19.77
2019-03-30T10:27:30.446Z,20.00
2019-03-30T10:29:58.793Z,19.67
2019-03-30T10:32:27.130Z,20.68
2019-03-30T10:34:55.425Z,21.60
2019-03-30T10:37:23.695Z,19.25
2019-03-30T10:39:52.061Z,17.60
2019-03-30T10:42:20.325Z,18.12
2019-03-30T10:44:48.661Z,19.02
2019-03-30T10:47:16.948Z,19.42
2019-03-30T10:49:45.393Z,21.65
2019-03-30T10:52:13.598Z,19.98
2019-03-30T10:54:52.685Z,19.98
2019-03-30T10:57:11.903Z,20.62
2019-03-30T10:59:40.189Z,18.23
2019-03-30T11:02:08.537Z,19.95
2019-03-30T11:04:37.660Z,19.77
2019-03-30T11:07:06.179Z,20.50
2019-03-30T11:09:34.549Z,16.95
2019-03-30T11:12:02.895Z,16.73
2019-03-30T11:14:31.168Z,17.92
2019-03-30T11:16:59.681Z,21.48
2019-03-30T11:19:27.941Z,22.15
2019-03-30T11:21:56.209Z,18.07
2019-03-30T11:24:24.533Z,17.70
2019-03-30T11:26:52.786Z,15.68
2019-03-30T11:29:21.099Z,16.05
2019-03-30T11:31:49.377Z,18.10
2019-03-30T11:34:17.648Z,17.62
2019-03-30T11:36:45.960Z,16.82
2019-03-30T11:39:14.258Z,14.95
2019-03-30T11:41:42.526Z,15.48
2019-03-30T11:44:10.824Z,15.30
2019-03-30T11:46:39.137Z,16.30
2019-03-30T11:49:07.380Z,14.35
2019-03-30T11:51:35.714Z,18.50
2019-03-30T11:54:05.431Z,15.23
2019-03-30T11:56:33.926Z,12.78
2019-03-30T11:59:02.260Z,16.12
2019-03-30T12:01:30.597Z,17.20
2019-03-30T12:03:58.913Z,13.65
2019-03-30T12:06:27.235Z,15.55
2019-03-30T12:08:55.501Z,12.82
2019-03-30T12:11:23.846Z,13.72
2019-03-30T12:13:52.138Z,11.73
2019-03-30T12:16:20.443Z,12.88
2019-03-30T12:18:48.707Z,14.63
2019-03-30T12:21:17.030Z,13.35
2019-03-30T12:23:45.298Z,12.85
2019-03-30T12:26:13.653Z,12.20
2019-03-30T12:28:42.006Z,15.65
2019-03-30T12:31:10.265Z,15.08
2019-03-30T12:33:38.620Z,11.83
2019-03-30T12:36:06.873Z,12.58
2019-03-30T12:38:35.169Z,15.38
2019-03-30T12:41:03.436Z,12.15
2019-03-30T12:43:31.777Z,11.97
2019-03-30T12:46:00.101Z,14.33
2019-03-30T12:48:28.448Z,14.38
2019-03-30T12:50:56.736Z,13.68
2019-03-30T12:53:25.012Z,15.78
2019-03-30T12:55:53.276Z,15.95
2019-03-30T12:58:21.591Z,14.63
2019-03-30T13:00:50.588Z,14.43
2019-03-30T13:03:18.971Z,16.37
2019-03-30T13:05:47.266Z,15.48
2019-03-30T13:08:15.636Z,17.45
2019-03-30T13:10:45.487Z,15.15
2019-03-30T13:13:14.128Z,15.48
2019-03-30T13:15:42.491Z,15.88
2019-03-30T13:18:10.824Z,14.23
2019-03-30T13:20:39.135Z,18.62
2019-03-30T13:23:07.458Z,17.10
2019-03-30T13:25:36.145Z,15.63
2019-03-30T13:28:04.563Z,14.53
2019-03-30T13:30:32.879Z,15.78
2019-03-30T13:33:01.160Z,13.88
2019-03-30T13:35:29.451Z,11.63
2019-03-30T13:37:57.714Z,12.55
2019-03-30T13:40:26.058Z,14.28
2019-03-30T13:42:54.383Z,12.30
2019-03-30T13:45:22.668Z,13.83
2019-03-30T13:47:51.001Z,16.55
2019-03-30T13:50:19.480Z,14.60
2019-03-30T13:52:47.858Z,13.90
2019-03-30T13:55:16.169Z,17.67
2019-03-30T13:57:45.977Z,14.33
2019-03-30T14:00:15.806Z,16.40
2019-03-30T14:02:44.747Z,14.10
2019-03-30T14:05:15.386Z,16.27
2019-03-30T14:07:48.221Z,15.50
2019-03-30T14:10:18.326Z,14.07
2019-03-30T14:12:49.455Z,14.25
2019-03-30T14:15:20.984Z,13.53
2019-03-30T14:17:51.945Z,14.40
2019-03-30T14:20:20.436Z,14.43
2019-03-30T14:22:48.931Z,15.18
2019-03-30T14:25:20.162Z,16.32
2019-03-30T14:27:48.834Z,13.58
2019-03-30T14:30:17.549Z,14.20
2019-03-30T14:32:46.196Z,13.93
2019-03-30T14:35:14.556Z,12.55
2019-03-30T14:37:43.035Z,16.52
2019-03-30T14:40:14.203Z,14.68
2019-03-30T14:42:42.966Z,13.18
2019-03-30T14:45:11.786Z,14.33
2019-03-30T14:47:40.087Z,12.78
2019-03-30T14:50:08.872Z,12.93
2019-03-30T14:52:41.085Z,14.45
2019-03-30T14:55:10.722Z,11.63
2019-03-30T14:57:39.060Z,13.15
2019-03-30T15:00:07.721Z,13.80
2019-03-30T15:02:36.652Z,13.40
2019-03-30T15:05:08.988Z,14.73
2019-03-30T15:07:37.323Z,12.82
2019-03-30T15:10:07.308Z,12.95
2019-03-30T15:12:36.469Z,12.43
2019-03-30T15:15:08.820Z,16.82
2019-03-30T15:17:40.420Z,15.15
2019-03-30T15:20:10.672Z,13.53
2019-03-30T15:22:39.241Z,14.68
2019-03-30T15:25:09.208Z,15.58
2019-03-30T15:27:37.595Z,15.70
2019-03-30T15:30:06.820Z,14.04
2019-03-30T15:32:35.273Z,16.75
2019-03-30T15:35:11.330Z,13.80
2019-03-30T15:38:11.014Z,22.45
2019-03-30T15:40:46.580Z,16.62
2019-03-30T15:43:37.995Z,15.65
2019-03-30T15:46:18.657Z,16.42
2019-03-30T15:48:50.664Z,17.10
2019-03-30T15:51:16.334Z,20.57
2019-03-30T15:53:45.099Z,16.93
2019-03-30T15:56:16.073Z,13.55
2019-03-30T15:58:55.947Z,16.90
2019-03-30T16:01:29.112Z,16.45
2019-03-30T16:03:57.477Z,17.92
2019-03-30T16:06:31.698Z,14.85
2019-03-30T16:09:00.134Z,16.70
2019-03-30T16:12:06.309Z,18.40
2019-03-30T16:15:19.392Z,18.35
2019-03-30T16:17:48.253Z,16.73
2019-03-30T16:20:16.623Z,14.03
2019-03-30T16:22:46.971Z,16.40
2019-03-30T16:25:18.480Z,15.72
2019-03-30T16:27:57.270Z,17.60
2019-03-30T16:30:27.247Z,16.40
2019-03-30T16:32:55.500Z,15.80
2019-03-30T16:35:27.126Z,16.10
2019-03-30T16:37:58.718Z,17.37
2019-03-30T16:40:27.017Z,15.93
2019-03-30T16:42:55.269Z,17.17
2019-03-30T16:45:23.938Z,15.70
2019-03-30T16:47:52.275Z,17.73
2019-03-30T16:50:22.215Z,18.23
2019-03-30T16:52:52.952Z,17.85
2019-03-30T16:55:23.240Z,17.87
2019-03-30T16:57:51.708Z,20.20
2019-03-30T17:00:20.572Z,21.40
2019-03-30T17:02:49.092Z,20.50
2019-03-30T17:05:17.367Z,19.05
2019-03-30T17:07:45.683Z,19.07
2019-03-30T17:10:15.603Z,21.83
2019-03-30T17:12:43.901Z,20.30
2019-03-30T17:15:12.234Z,19.05
2019-03-30T17:17:40.601Z,18.85
2019-03-30T17:20:08.975Z,23.10
2019-03-30T17:22:37.422Z,20.75
2019-03-30T17:25:06.825Z,20.00
2019-03-30T17:27:35.140Z,20.70
2019-03-30T17:30:03.422Z,24.25
2019-03-30T17:32:31.699Z,20.60
2019-03-30T17:34:59.970Z,21.68
2019-03-30T17:37:28.335Z,22.02
2019-03-30T17:39:56.883Z,23.15
2019-03-30T17:42:25.293Z,21.80
2019-03-30T17:44:56.573Z,20.75
2019-03-30T17:47:24.909Z,24.50
2019-03-30T17:49:53.152Z,21.65
2019-03-30T17:52:21.557Z,22.70
2019-03-30T17:54:49.846Z,23.02
2019-03-30T17:57:18.162Z,21.35
2019-03-30T17:59:46.494Z,21.27
2019-03-30T18:02:14.836Z,22.42
2019-03-30T18:04:43.155Z,23.18
2019-03-30T18:07:13.627Z,24.50
2019-03-30T18:09:41.463Z,26.17
2019-03-30T18:12:09.736Z,27.48
2019-03-30T18:14:38.095Z,24.20
2019-03-30T18:17:07.247Z,23.20
2019-03-30T18:19:35.553Z,27.32
2019-03-30T18:22:03.998Z,26.55
2019-03-30T18:24:34.501Z,30.45
2019-03-30T18:27:03.001Z,28.35
2019-03-30T18:29:34.531Z,27.07
2019-03-30T18:32:03.036Z,27.13
2019-03-30T18:34:31.518Z,29.00
2019-03-30T18:37:01.219Z,26.80
2019-03-30T18:39:30.168Z,30.17
2019-03-30T18:41:58.487Z,30.50
2019-03-30T18:44:26.998Z,34.23
2019-03-30T18:46:55.390Z,32.58
2019-03-30T18:49:23.736Z,32.42
2019-03-30T18:51:52.046Z,32.83
2019-03-30T18:54:20.648Z,32.00
2019-03-30T18:56:48.951Z,34.85
2019-03-30T18:59:17.269Z,36.90
2019-03-30T19:01:45.589Z,36.28
2019-03-30T19:04:14.020Z,37.25
2019-03-30T19:06:42.410Z,36.40
2019-03-30T19:09:10.687Z,36.85
2019-03-30T19:11:39.120Z,34.85
2019-03-30T19:14:07.420Z,34.85
2019-03-30T19:16:35.722Z,36.23
2019-03-30T19:19:04.066Z,33.28
2019-03-30T19:21:32.443Z,40.70
2019-03-30T19:24:00.705Z,33.78
2019-03-30T19:26:29.001Z,33.48
2019-03-30T19:28:57.356Z,40.33
2019-03-30T19:31:25.729Z,39.15
2019-03-30T19:33:54.106Z,44.80
2019-03-30T19:36:22.398Z,47.98
2019-03-30T19:38:50.695Z,42.13
2019-03-30T19:41:19.092Z,43.28
2019-03-30T19:43:47.437Z,53.68
2019-03-30T19:46:15.726Z,54.88
2019-03-30T19:48:44.017Z,55.80
2019-03-30T19:51:12.390Z,69.67
2019-03-30T19:53:40.689Z,62.93
2019-03-30T19:56:09.052Z,54.75
2019-03-30T19:58:37.349Z,52.30
2019-03-30T20:01:05.632Z,48.52
2019-03-30T20:03:34.040Z,44.15
2019-03-30T20:06:02.557Z,43.48
2019-03-30T20:08:30.958Z,43.85
2019-03-30T20:10:59.339Z,40.90
2019-03-30T20:13:27.739Z,38.98
2019-03-30T20:15:56.101Z,39.75
2019-03-30T20:18:24.479Z,39.98
2019-03-30T20:20:52.859Z,40.98
2019-03-30T20:23:21.279Z,40.70
2019-03-30T20:25:49.705Z,41.00
2019-03-30T20:28:18.028Z,39.10
2019-03-30T20:30:46.351Z,39.08
2019-03-30T20:33:14.706Z,37.88
2019-03-30T20:35:43.040Z,44.03
2019-03-30T20:38:11.431Z,44.40
2019-03-30T20:40:39.777Z,41.85
2019-03-30T20:43:08.171Z,45.75
2019-03-30T20:45:36.528Z,42.88
2019-03-30T20:48:05.039Z,48.28
2019-03-30T20:50:33.316Z,46.63
2019-03-30T20:53:01.647Z,49.70
2019-03-30T20:55:30.089Z,43.80
2019-03-30T20:57:58.454Z,48.95
2019-03-30T21:00:26.860Z,45.20
2019-03-30T21:02:55.263Z,46.15
2019-03-30T21:05:23.665Z,46.27
2019-03-30T21:07:52.059Z,46.58
2019-03-30T21:10:20.468Z,51.25
2019-03-30T21:12:48.734Z,44.95
2019-03-30T21:15:17.094Z,43.80
2019-03-30T21:17:45.391Z,52.17
2019-03-30T21:20:13.851Z,48.07
2019-03-30T21:22:42.260Z,48.75
2019-03-30T21:25:10.652Z,49.73
2019-03-30T21:27:38.954Z,50.55
2019-03-30T21:30:08.009Z,50.17
2019-03-30T21:32:36.334Z,49.18
2019-03-30T21:35:04.787Z,49.75
2019-03-30T21:37:33.159Z,51.20
2019-03-30T21:40:01.462Z,50.83
2019-03-30T21:42:29.805Z,53.42
2019-03-30T21:44:58.052Z,51.85
2019-03-30T21:47:26.380Z,53.17
2019-03-30T21:49:54.706Z,51.20
2019-03-30T21:52:23.106Z,50.78
2019-03-30T21:54:51.394Z,54.38
2019-03-30T21:57:19.700Z,55.00
2019-03-30T21:59:48.151Z,55.92
2019-03-30T22:02:16.513Z,54.42
2019-03-30T22:04:44.823Z,53.63
2019-03-30T22:07:13.223Z,52.53
2019-03-30T22:09:41.478Z,53.28
2019-03-30T22:12:09.916Z,53.70
2019-03-30T22:14:38.442Z,49.10
2019-03-30T22:17:06.733Z,55.85
2019-03-30T22:19:35.040Z,51.83
2019-03-30T22:22:03.500Z,51.77
2019-03-30T22:24:31.772Z,55.88
2019-03-30T22:27:00.090Z,52.23
2019-03-30T22:29:28.465Z,53.48
2019-03-30T22:31:56.751Z,54.90
2019-03-30T22:34:25.040Z,55.17
2019-03-30T22:36:53.411Z,55.25
2019-03-30T22:39:21.738Z,56.20
2019-03-30T22:41:50.083Z,57.05
2019-03-30T22:44:18.353Z,56.15
2019-03-30T22:46:46.761Z,56.65
2019-03-30T22:49:15.110Z,58.17
2019-03-30T22:51:43.422Z,57.40
2019-03-30T22:54:11.671Z,60.52
2019-03-30T22:56:39.945Z,64.90
2019-03-30T22:59:08.289Z,71.15
2019-03-30T23:01:36.620Z,64.58
2019-03-30T23:04:04.986Z,61.88
2019-03-30T23:06:33.296Z,61.08
2019-03-30T23:09:01.636Z,60.45
2019-03-30T23:11:29.967Z,64.07
2019-03-30T23:13:58.294Z,63.40
2019-03-30T23:16:26.601Z,64.17
2019-03-30T23:18:54.909Z,60.80
2019-03-30T23:21:23.156Z,61.45
2019-03-30T23:23:51.438Z,62.95
2019-03-30T23:26:19.728Z,63.78
2019-03-30T23:28:48.073Z,64.77
2019-03-30T23:31:16.355Z,66.53
2019-03-30T23:33:44.635Z,63.45
2019-03-30T23:36:12.888Z,62.62
2019-03-30T23:38:41.219Z,68.30
2019-03-30T23:41:09.552Z,67.72
2019-03-30T23:43:37.852Z,64.00
2019-03-30T23:46:06.213Z,68.28
2019-03-30T23:48:34.465Z,66.67
2019-03-30T23:51:02.802Z,70.52
2019-03-30T23:53:31.143Z,68.45
2019-03-30T23:55:59.529Z,69.07
2019-03-30T23:58:27.850Z,66.67
